Time;durP1;ratioP1;P1;durP2;ratioP2;P2;SDS_P1;SDS_P2;PMS_P1;PMS_P2;Temp;Humidity;BMP_temperature;BMP_pressure;BME280_temperature;BME280_humidity;BME280_pressure;Samples;Min_cycle;Max_cycle;Signal;HPM_P1;HPM_P2
2022/11/01 00:01:41;;;;;;;0.00;0.00;;;;;;;13.57;79.60;99110.84;7358827;19;20690;-59
2022/11/01 00:04:07;;;;;;;0.00;0.00;;;;;;;13.57;80.03;99105.63;7359442;19;20031;-59
2022/11/01 00:06:34;;;;;;;0.00;0.00;;;;;;;13.57;79.56;99115.25;7358772;19;20070;-60
2022/11/01 00:08:59;;;;;;;0.00;0.00;;;;;;;13.56;79.71;99124.91;7361318;19;20034;-59
2022/11/01 00:11:25;;;;;;;0.00;0.00;;;;;;;13.57;79.08;99126.59;7361072;19;20011;-59
2022/11/01 00:13:50;;;;;;;0.00;0.00;;;;;;;13.56;79.00;99124.91;7365092;19;20021;-60
2022/11/01 00:16:18;;;;;;;0.00;0.00;;;;;;;13.55;78.85;99123.22;7363882;19;20876;-59
2022/11/01 00:18:43;;;;;;;0.00;0.00;;;;;;;13.40;78.73;99106.63;7356856;19;20054;-59
2022/11/01 00:21:10;;;;;;;0.10;0.10;;;;;;;13.50;79.01;99120.03;7354237;19;20015;-60
2022/11/01 00:23:36;;;;;;;0.10;0.10;;;;;;;13.41;78.64;99110.94;7354748;19;20029;-58
2022/11/01 00:26:02;;;;;;;0.00;0.00;;;;;;;13.43;78.27;99129.19;7358116;19;20039;-60
2022/11/01 00:28:28;;;;;;;0.00;0.00;;;;;;;13.38;78.98;99132.13;7354714;19;20089;-59
2022/11/01 00:30:55;;;;;;;0.00;0.00;;;;;;;13.35;78.50;99134.91;7356927;19;20018;-59
2022/11/01 00:33:21;;;;;;;0.10;0.10;;;;;;;13.31;78.71;99125.53;7359602;19;20010;-60
2022/11/01 00:35:47;;;;;;;0.10;0.10;;;;;;;13.21;78.57;99119.97;7363644;19;20033;-58
2022/11/01 00:38:13;;;;;;;0.00;0.00;;;;;;;13.27;78.84;99133.66;7356210;19;20014;-59
2022/11/01 00:40:39;;;;;;;0.00;0.00;;;;;;;13.21;78.42;99130.47;7360909;19;20634;-59
2022/11/01 00:43:04;;;;;;;0.00;0.00;;;;;;;13.21;78.46;99146.19;7357313;19;20010;-58
2022/11/01 00:45:30;;;;;;;0.10;0.10;;;;;;;13.20;78.04;99144.47;7362372;19;20006;-59
2022/11/01 00:47:56;;;;;;;0.00;0.00;;;;;;;13.17;78.63;99144.66;7357656;19;20020;-58
2022/11/01 00:50:21;;;;;;;0.00;0.00;;;;;;;13.17;78.66;99144.66;7361025;19;20362;-60
2022/11/01 00:52:47;;;;;;;0.00;0.00;;;;;;;13.15;78.20;99150.94;7359490;19;20018;-58
2022/11/01 00:55:13;;;;;;;0.00;0.00;;;;;;;13.14;78.27;99159.72;7362548;19;20018;-59
2022/11/01 00:57:38;;;;;;;0.08;0.08;;;;;;;13.13;78.50;99147.56;7355472;19;20023;-60
2022/11/01 01:00:05;;;;;;;0.00;0.00;;;;;;;13.02;78.39;99137.66;7360886;19;20031;-60
2022/11/01 01:02:30;;;;;;;0.00;0.00;;;;;;;13.10;78.27;99159.06;7359776;19;20825;-58
2022/11/01 01:04:56;;;;;;;0.00;0.00;;;;;;;13.10;78.50;99143.31;7360589;19;20013;-58
2022/11/01 01:07:21;;;;;;;0.10;0.10;;;;;;;12.97;78.53;99137.94;7360327;19;20027;-59
2022/11/01 01:09:47;;;;;;;0.10;0.10;;;;;;;13.05;77.97;99155.00;7358531;19;20022;-60
2022/11/01 01:12:12;;;;;;;0.00;0.00;;;;;;;13.08;78.17;99158.31;7359429;19;20014;-59
2022/11/01 01:14:38;;;;;;;0.00;0.00;;;;;;;13.07;78.34;99161.00;7358474;19;20014;-60
2022/11/01 01:17:03;;;;;;;0.08;0.08;;;;;;;13.05;78.62;99166.34;7357279;19;20003;-59
2022/11/01 01:19:29;;;;;;;0.00;0.00;;;;;;;13.04;78.18;99164.66;7358076;19;20034;-60
2022/11/01 01:21:55;;;;;;;0.00;0.00;;;;;;;13.01;77.94;99148.25;7357676;19;20011;-59
2022/11/01 01:24:20;;;;;;;0.00;0.00;;;;;;;12.86;77.45;99123.78;7361571;19;20006;-60
2022/11/01 01:26:46;;;;;;;0.00;0.00;;;;;;;12.95;77.11;99147.66;7358247;19;20021;-60
2022/11/01 01:29:11;;;;;;;0.00;0.00;;;;;;;12.91;76.97;99148.78;7359629;19;20014;-59
2022/11/01 01:31:37;;;;;;;0.00;0.00;;;;;;;12.87;77.83;99141.16;7359626;19;20022;-59
2022/11/01 01:34:03;;;;;;;0.10;0.10;;;;;;;12.83;77.83;99140.53;7355456;19;20123;-60
2022/11/01 01:36:28;;;;;;;0.00;0.00;;;;;;;12.79;77.52;99146.84;7356552;19;20031;-59
2022/11/01 01:38:53;;;;;;;0.00;0.00;;;;;;;12.70;76.90;99145.59;7359728;19;20014;-59
2022/11/01 01:44:41;;;;;;;0.00;0.00;;;;;;;12.65;76.66;99147.63;7360753;19;20022;-60
2022/11/01 01:47:08;;;;;;;0.00;0.00;;;;;;;12.57;77.19;99147.22;7259806;19;2004289;-58
2022/11/01 01:49:34;;;;;;;;;;;;;;;12.54;75.94;99165.72;7363313;19;20019;-60
2022/11/01 01:51:59;;;;;;;0.03;0.03;;;;;;;12.44;76.95;99148.81;7360887;19;19919;-59
2022/11/01 01:54:25;;;;;;;0.00;0.00;;;;;;;12.39;77.13;99138.59;7361775;19;20014;-60
2022/11/01 01:56:51;;;;;;;0.00;0.00;;;;;;;12.34;77.68;99131.94;7360173;19;20389;-59
2022/11/01 01:59:16;;;;;;;0.00;0.00;;;;;;;12.30;77.27;99119.94;7362557;19;20728;-59
2022/11/01 02:01:42;;;;;;;0.00;0.00;;;;;;;12.27;77.53;99114.91;7359329;19;20481;-59
2022/11/01 02:04:15;;;;;;;0.00;0.00;;;;;;;12.17;77.84;99112.78;7362245;19;20101;-59
2022/11/01 02:06:40;;;;;;;0.00;0.00;;;;;;;12.19;77.48;99118.75;7362758;19;20505;-60
2022/11/01 02:09:08;;;;;;;0.00;0.00;;;;;;;12.15;78.12;99112.00;7360005;19;20086;-59
2022/11/01 02:11:34;;;;;;;0.00;0.00;;;;;;;12.14;77.86;99105.09;7360654;19;20011;-59
2022/11/01 02:14:00;;;;;;;0.08;0.08;;;;;;;12.10;77.94;99098.31;7360996;19;20019;-59
2022/11/01 02:16:35;;;;;;;0.00;0.00;;;;;;;12.09;77.35;99107.09;7364277;19;20005;-60
2022/11/01 02:19:25;;;;;;;0.00;0.00;;;;;;;12.05;77.65;99113.41;7367954;19;20006;-59
2022/11/01 02:22:04;;;;;;;0.10;0.10;;;;;;;12.02;76.84;99111.00;7366809;19;20776;-59
2022/11/01 02:24:53;;;;;;;0.00;0.00;;;;;;;11.97;77.23;99113.00;7367874;19;20045;-60
2022/11/01 02:27:46;;;;;;;0.00;0.00;;;;;;;11.91;76.48;99118.53;7369253;19;20014;-59
2022/11/01 02:30:19;;;;;;;0.00;0.00;;;;;;;11.86;77.14;99112.72;7262593;19;2004280;-60
2022/11/01 02:33:04;;;;;;;0.05;0.05;;;;;;;11.81;76.89;99112.09;7367995;19;20108;-59
2022/11/01 02:35:55;;;;;;;0.00;0.00;;;;;;;11.75;77.55;99112.41;7366613;19;20023;-59
2022/11/01 02:38:28;;;;;;;0.00;0.00;;;;;;;11.59;77.79;99092.31;7266388;19;2004526;-59
2022/11/01 02:41:09;;;;;;;0.00;0.00;;;;;;;11.63;78.06;99109.53;7364895;19;20010;-59
2022/11/01 02:43:47;;;;;;;0.00;0.00;;;;;;;11.59;78.25;99107.16;7366481;19;20022;-59
2022/11/01 02:48:59;;;;;;;0.00;0.00;;;;;;;11.50;78.45;99111.06;7366639;19;20663;-59
2022/11/01 02:51:27;;;;;;;0.00;0.00;;;;;;;11.47;78.87;99111.25;7369259;19;20007;-59
2022/11/01 02:53:52;;;;;;;0.05;0.05;;;;;;;11.43;78.11;99107.09;7365794;19;20006;-59
2022/11/01 02:56:18;;;;;;;0.00;0.00;;;;;;;11.41;78.32;99114.19;7368150;19;20011;-59
2022/11/01 02:58:45;;;;;;;0.03;0.03;;;;;;;11.40;78.53;99115.09;7357596;19;20019;-59
2022/11/01 03:01:20;;;;;;;0.00;0.00;;;;;;;11.27;78.35;99095.75;7367853;19;20765;-58
2022/11/01 03:03:50;;;;;;;0.00;0.00;;;;;;;11.35;78.33;99114.47;7363184;19;20015;-59
2022/11/01 03:06:34;;;;;;;0.08;0.08;;;;;;;11.33;77.69;99111.13;7365202;19;20005;-59
2022/11/01 03:09:03;;;;;;;0.00;0.00;;;;;;;11.23;78.49;99091.59;7363450;19;20014;-59
2022/11/01 03:11:40;;;;;;;0.00;0.00;;;;;;;11.29;78.70;99099.97;7365620;19;20456;-58
2022/11/01 03:14:22;;;;;;;0.00;0.00;;;;;;;11.28;77.47;99098.28;7362545;19;20393;-59
2022/11/01 03:17:17;;;;;;;0.00;0.00;;;;;;;11.30;78.24;99101.66;7365006;19;20043;-59
2022/11/01 03:19:50;;;;;;;0.00;0.00;;;;;;;11.19;78.78;99072.63;7261416;19;2004677;-59
2022/11/01 03:22:31;;;;;;;0.00;0.00;;;;;;;11.30;78.81;99083.34;7365196;19;20731;-59
2022/11/01 03:25:02;;;;;;;0.10;0.10;;;;;;;11.30;78.90;99090.34;7365242;19;20031;-60
2022/11/01 03:27:43;;;;;;;0.00;0.00;;;;;;;11.33;78.51;99098.06;7365052;19;20014;-60
2022/11/01 03:30:13;;;;;;;0.10;0.10;;;;;;;11.24;78.44;99075.00;7363656;19;20003;-59
2022/11/01 03:32:51;;;;;;;0.03;0.03;;;;;;;11.32;78.36;99078.91;7362050;19;20086;-59
2022/11/01 03:35:23;;;;;;;0.00;0.00;;;;;;;11.36;78.80;99100.50;7363170;19;21322;-59
2022/11/01 03:37:52;;;;;;;0.00;0.00;;;;;;;11.32;78.38;99098.97;7362501;19;20039;-59
2022/11/01 03:40:18;;;;;;;0.00;0.00;;;;;;;11.36;78.85;99096.13;7362755;19;20950;-59
2022/11/01 03:42:48;;;;;;;0.08;0.08;;;;;;;11.38;78.76;99109.13;7364899;19;20010;-59
2022/11/01 03:45:18;;;;;;;0.08;0.08;;;;;;;11.38;78.87;99109.13;7362813;19;20006;-59
2022/11/01 03:47:43;;;;;;;0.00;0.00;;;;;;;11.37;78.60;99112.66;7339573;19;20590;-57
2022/11/01 03:50:14;;;;;;;0.00;0.00;;;;;;;11.39;78.25;99113.41;7361627;19;20043;-59
2022/11/01 03:52:40;;;;;;;0.00;0.00;;;;;;;11.37;79.14;99103.03;7365119;19;20105;-59
2022/11/01 03:55:19;;;;;;;0.00;0.00;;;;;;;11.29;78.99;99096.50;7362939;19;20014;-59
2022/11/01 03:57:53;;;;;;;0.00;0.00;;;;;;;11.41;78.99;99106.34;7364895;19;20017;-59
2022/11/01 04:00:19;;;;;;;0.05;0.05;;;;;;;11.40;78.81;99107.25;7361782;19;20006;-59
2022/11/01 04:02:46;;;;;;;0.03;0.03;;;;;;;11.42;79.20;99105.41;7367782;19;20007;-59
2022/11/01 04:05:11;;;;;;;0.08;0.08;;;;;;;11.43;79.35;99112.34;7359361;19;20025;-59
2022/11/01 04:07:38;;;;;;;0.00;0.00;;;;;;;11.44;79.12;99108.78;7365740;19;20010;-59
2022/11/01 04:10:04;;;;;;;0.00;0.00;;;;;;;11.45;78.45;99115.69;7364439;19;20016;-58
2022/11/01 04:12:29;;;;;;;0.00;0.00;;;;;;;11.46;79.22;99109.56;7366928;19;20173;-59
2022/11/01 04:20:32;;;;;;;0.00;0.00;;;;;;;11.48;78.96;99078.13;7360651;19;20411;-59
2022/11/01 04:22:59;;;;;;;0.00;0.00;;;;;;;11.44;78.95;99066.97;7362581;19;20029;-59
2022/11/01 04:25:25;;;;;;;0.00;0.00;;;;;;;11.46;78.95;99064.28;7365937;19;20089;-57
2022/11/01 04:27:50;;;;;;;0.05;0.05;;;;;;;11.44;79.15;99072.19;7365332;19;20081;-59
2022/11/01 04:30:16;;;;;;;0.10;0.10;;;;;;;11.32;79.39;99065.84;7363986;19;20512;-58
2022/11/01 04:32:43;;;;;;;0.00;0.00;;;;;;;11.44;78.86;99074.81;7367650;19;20014;-58
2022/11/01 04:35:10;;;;;;;0.10;0.10;;;;;;;11.43;78.73;99071.34;7363552;19;20018;-57
2022/11/01 04:37:36;;;;;;;0.00;0.00;;;;;;;11.42;78.84;99071.44;7367315;19;20041;-58
2022/11/01 04:40:03;;;;;;;0.00;0.00;;;;;;;11.37;78.88;99065.59;7361372;19;20015;-58
2022/11/01 04:42:28;;;;;;;0.00;0.00;;;;;;;11.39;78.76;99069.81;7364415;19;20053;-57
2022/11/01 04:44:54;;;;;;;0.00;0.00;;;;;;;11.37;79.08;99071.69;7363971;19;20010;-58
2022/11/01 04:47:19;;;;;;;0.00;0.00;;;;;;;11.37;78.37;99069.06;7366224;19;22934;-58
2022/11/01 04:49:45;;;;;;;0.00;0.00;;;;;;;11.35;78.23;99077.91;7363311;19;20025;-58
2022/11/01 04:52:10;;;;;;;0.00;0.00;;;;;;;11.34;78.24;99078.81;7366218;19;20366;-58
2022/11/01 04:54:35;;;;;;;0.00;0.00;;;;;;;11.31;78.06;99087.69;7359392;19;20074;-59
2022/11/01 04:57:01;;;;;;;0.00;0.00;;;;;;;11.29;78.08;99084.28;7364968;19;20042;-59
2022/11/01 04:59:26;;;;;;;0.00;0.00;;;;;;;11.27;78.16;99077.47;7364631;19;20003;-59
2022/11/01 05:01:52;;;;;;;0.00;0.00;;;;;;;11.25;78.08;99087.97;7365998;19;20018;-59
2022/11/01 05:04:17;;;;;;;0.00;0.00;;;;;;;11.24;78.41;99085.44;7364325;19;20010;-59
2022/11/01 05:06:42;;;;;;;0.00;0.00;;;;;;;11.21;78.74;99080.41;7365394;19;20006;-58
2022/11/01 05:09:08;;;;;;;0.00;0.00;;;;;;;11.17;78.18;99080.53;7365193;19;20342;-58
2022/11/01 05:11:33;;;;;;;0.00;0.00;;;;;;;11.16;77.83;99084.09;7363315;19;20178;-58
2022/11/01 05:13:58;;;;;;;0.00;0.00;;;;;;;11.14;77.99;99065.00;7364744;19;20034;-56
2022/11/01 05:16:24;;;;;;;0.00;0.00;;;;;;;11.12;78.02;99082.53;7365699;19;20009;-59
2022/11/01 05:18:49;;;;;;;0.00;0.00;;;;;;;11.07;78.01;99084.53;7365372;19;20019;-58
2022/11/01 05:21:15;;;;;;;0.10;0.10;;;;;;;11.08;77.51;99082.78;7363525;19;20010;-58
2022/11/01 05:23:40;;;;;;;0.00;0.00;;;;;;;11.05;77.88;99081.19;7364213;19;22052;-59
2022/11/01 05:26:06;;;;;;;0.00;0.00;;;;;;;11.05;77.76;99081.19;7363533;19;20014;-59
2022/11/01 05:28:31;;;;;;;0.00;0.00;;;;;;;10.95;78.01;99074.72;7364495;19;20735;-58
2022/11/01 05:30:57;;;;;;;0.00;0.00;;;;;;;11.03;77.96;99092.59;7362951;19;20078;-59
2022/11/01 05:33:22;;;;;;;0.00;0.00;;;;;;;11.01;77.82;99105.75;7364070;19;20011;-59
2022/11/01 05:35:48;;;;;;;0.00;0.00;;;;;;;10.99;78.12;99099.75;7363958;19;20022;-58
2022/11/01 05:38:13;;;;;;;0.00;0.00;;;;;;;10.82;77.85;99065.81;7363500;19;20408;-58
2022/11/01 05:40:39;;;;;;;0.00;0.00;;;;;;;10.96;78.06;99101.69;7361835;19;20010;-59
2022/11/01 05:43:04;;;;;;;0.00;0.00;;;;;;;10.94;77.90;99101.75;7362618;19;20070;-59
2022/11/01 05:45:29;;;;;;;0.00;0.00;;;;;;;10.94;77.60;99100.91;7360968;19;20018;-58
2022/11/01 05:48:00;;;;;;;0.03;0.03;;;;;;;10.91;77.81;99094.06;7363174;19;21464;-59
2022/11/01 05:50:25;;;;;;;0.00;0.00;;;;;;;10.89;77.99;99106.34;7364666;19;20017;-59
2022/11/01 05:52:50;;;;;;;0.05;0.05;;;;;;;10.90;77.23;99095.00;7370068;19;25336;-58
2022/11/01 05:55:16;;;;;;;0.03;0.03;;;;;;;10.88;77.85;99094.22;7370403;19;20024;-59
2022/11/01 05:57:42;;;;;;;0.00;0.00;;;;;;;10.84;77.88;99077.00;7369889;19;20013;-59
2022/11/01 06:00:08;;;;;;;0.00;0.00;;;;;;;10.83;77.84;99107.50;7370541;19;20879;-59
2022/11/01 06:02:33;;;;;;;0.00;0.00;;;;;;;10.74;77.80;99073.16;7369988;19;20100;-58
2022/11/01 06:04:59;;;;;;;0.00;0.00;;;;;;;10.80;78.27;99088.53;7369253;19;20366;-58
2022/11/01 06:07:25;;;;;;;0.10;0.10;;;;;;;10.78;78.34;99075.53;7369094;19;20014;-57
2022/11/01 06:09:51;;;;;;;0.00;0.00;;;;;;;10.77;78.09;99076.47;7369450;19;20018;-58
2022/11/01 06:12:16;;;;;;;0.03;0.03;;;;;;;10.77;78.10;99075.63;7369890;19;20020;-59
2022/11/01 06:14:42;;;;;;;0.00;0.00;;;;;;;10.75;78.37;99072.25;7368554;19;20021;-58
2022/11/01 06:17:11;;;;;;;0.00;0.00;;;;;;;10.77;78.18;99070.41;7370094;19;20018;-58
2022/11/01 06:19:37;;;;;;;0.10;0.10;;;;;;;10.77;77.79;99070.41;7368450;19;20472;-59
2022/11/01 06:22:02;;;;;;;0.00;0.00;;;;;;;10.74;78.23;99067.94;7369477;19;20014;-59
2022/11/01 06:24:28;;;;;;;0.00;0.00;;;;;;;10.73;78.19;99069.72;7368601;19;20028;-59
2022/11/01 06:26:53;;;;;;;0.00;0.00;;;;;;;10.74;78.27;99071.38;7369785;19;20397;-59
2022/11/01 06:29:19;;;;;;;0.10;0.10;;;;;;;10.73;77.97;99068.88;7368263;19;20006;-59
2022/11/01 06:31:44;;;;;;;0.00;0.00;;;;;;;10.72;78.12;99061.97;7369115;19;20015;-59
2022/11/01 06:34:09;;;;;;;0.05;0.05;;;;;;;10.71;77.99;99066.34;7369668;19;20013;-59
2022/11/01 06:36:35;;;;;;;0.00;0.00;;;;;;;10.71;78.20;99079.41;7368702;19;20457;-58
2022/11/01 06:39:00;;;;;;;0.10;0.10;;;;;;;10.70;78.27;99079.47;7367883;19;20014;-57
2022/11/01 06:41:25;;;;;;;0.00;0.00;;;;;;;10.69;77.97;99088.19;7367910;19;20713;-58
2022/11/01 06:43:51;;;;;;;0.00;0.00;;;;;;;10.67;77.88;99100.50;7369471;19;20014;-59
2022/11/01 06:46:16;;;;;;;0.00;0.00;;;;;;;10.67;77.93;99100.50;7368327;19;20042;-59
2022/11/01 06:48:42;;;;;;;0.00;0.00;;;;;;;10.64;77.89;99110.19;7368535;19;20011;-59
2022/11/01 06:51:07;;;;;;;0.08;0.08;;;;;;;10.64;77.89;99122.38;7368551;19;20106;-58
2022/11/01 06:53:32;;;;;;;0.00;0.00;;;;;;;10.63;78.01;99120.69;7368990;19;20011;-59
2022/11/01 06:55:59;;;;;;;0.00;0.00;;;;;;;10.64;77.65;99111.91;7369335;19;20019;-58
2022/11/01 06:58:24;;;;;;;0.00;0.00;;;;;;;10.60;78.24;99116.47;7359800;19;20002;-58
2022/11/01 07:00:50;;;;;;;0.00;0.00;;;;;;;10.60;78.31;99120.84;7367167;19;20025;-58
2022/11/01 07:03:15;;;;;;;0.00;0.00;;;;;;;10.55;78.47;99121.06;7366239;19;20033;-57
2022/11/01 07:05:41;;;;;;;0.00;0.00;;;;;;;10.57;78.41;99132.25;7368239;19;20732;-58
2022/11/01 07:08:10;;;;;;;0.00;0.00;;;;;;;10.58;77.95;99136.56;7365847;19;20030;-59
2022/11/01 07:10:37;;;;;;;0.00;0.00;;;;;;;10.56;78.24;99141.03;7367252;19;20006;-59
2022/11/01 07:13:04;;;;;;;;;;;;;;;10.58;77.69;99154.81;7363605;19;21647;-57
2022/11/01 07:15:30;;;;;;;0.00;0.00;;;;;;;10.54;77.98;99155.91;7367982;19;20361;-59
2022/11/01 07:18:00;;;;;;;0.03;0.03;;;;;;;10.54;77.77;99155.03;7364640;19;20006;-58
2022/11/01 07:20:27;;;;;;;0.10;0.10;;;;;;;10.51;77.83;99171.72;7364782;19;20031;-58
2022/11/01 07:23:00;;;;;;;0.00;0.00;;;;;;;10.52;77.48;99181.22;7364189;19;20061;-58
2022/11/01 07:25:26;;;;;;;0.10;0.10;;;;;;;10.47;78.29;99193.63;7366244;19;20810;-58
2022/11/01 07:27:51;;;;;;;0.00;0.00;;;;;;;10.46;78.13;99196.34;7361526;19;20331;-59
2022/11/01 07:30:17;;;;;;;0.00;0.00;;;;;;;10.44;78.08;99199.03;7364868;19;20017;-59
2022/11/01 07:32:43;;;;;;;0.00;0.00;;;;;;;10.43;77.75;99202.53;7363841;19;20011;-58
2022/11/01 07:35:08;;;;;;;0.00;0.00;;;;;;;10.42;78.17;99195.63;7366354;19;20010;-58
2022/11/01 07:37:34;;;;;;;0.00;0.00;;;;;;;10.42;78.07;99213.03;7363323;19;20017;-59
2022/11/01 07:40:00;;;;;;;0.00;0.00;;;;;;;10.43;77.83;99212.13;7361321;19;20018;-58
2022/11/01 07:42:25;;;;;;;0.00;0.00;;;;;;;10.42;78.03;99215.66;7367440;19;20018;-58
2022/11/01 07:44:50;;;;;;;0.08;0.08;;;;;;;10.41;78.34;99214.81;7361775;19;20036;-58
2022/11/01 07:47:16;;;;;;;0.00;0.00;;;;;;;10.41;78.24;99225.25;7366521;19;20042;-59
2022/11/01 07:49:41;;;;;;;0.00;0.00;;;;;;;10.40;78.67;99234.00;7363265;19;20023;-58
2022/11/01 07:52:06;;;;;;;0.00;0.00;;;;;;;10.42;78.43;99226.09;7364122;19;20023;-58
2022/11/01 07:54:32;;;;;;;0.00;0.00;;;;;;;10.43;78.18;99233.84;7362450;19;20533;-58
2022/11/01 07:56:57;;;;;;;0.00;0.00;;;;;;;10.44;78.15;99229.47;7365650;19;20014;-58
2022/11/01 07:59:23;;;;;;;0.00;0.00;;;;;;;10.41;78.17;99224.41;7362406;19;20021;-58
2022/11/01 08:01:48;;;;;;;0.00;0.00;;;;;;;10.48;78.52;99241.47;7364775;19;20017;-58
2022/11/01 08:04:13;;;;;;;0.00;0.00;;;;;;;10.48;78.30;99237.09;7364438;19;20013;-58
2022/11/01 08:06:39;;;;;;;0.00;0.00;;;;;;;10.52;78.52;99240.41;7364274;19;20025;-58
2022/11/01 08:09:05;;;;;;;0.00;0.00;;;;;;;10.54;78.54;99241.19;7363398;19;20090;-58
2022/11/01 08:11:30;;;;;;;0.00;0.00;;;;;;;10.55;78.37;99237.69;7363932;19;20027;-59
2022/11/01 08:13:55;;;;;;;0.00;0.00;;;;;;;10.57;78.32;99241.88;7360592;19;20534;-59
2022/11/01 08:16:21;;;;;;;0.00;0.00;;;;;;;10.61;78.64;99248.66;7365614;19;20014;-58
2022/11/01 08:18:47;;;;;;;0.00;0.00;;;;;;;10.63;78.43;99246.81;7360919;19;20074;-59
2022/11/01 08:21:17;;;;;;;0.10;0.10;;;;;;;10.64;78.61;99243.31;7365061;19;20014;-58
2022/11/01 08:23:43;;;;;;;0.00;0.00;;;;;;;10.68;78.23;99243.16;7360743;19;20421;-58
2022/11/01 08:26:09;;;;;;;0.00;0.00;;;;;;;10.70;78.73;99251.78;7359168;19;20413;-59
2022/11/01 08:28:34;;;;;;;0.00;0.00;;;;;;;10.74;78.42;99263.75;7362904;19;20014;-58
2022/11/01 08:31:05;;;;;;;0.00;0.00;;;;;;;10.80;78.65;99268.72;7364016;19;20025;-59
2022/11/01 08:33:31;;;;;;;0.00;0.00;;;;;;;10.77;78.27;99263.63;7362965;19;20472;-59
2022/11/01 08:35:56;;;;;;;0.00;0.00;;;;;;;10.85;78.37;99291.09;7364321;19;20003;-59
2022/11/01 08:38:22;;;;;;;0.00;0.00;;;;;;;10.88;78.41;99287.47;7364562;19;20006;-59
2022/11/01 08:40:47;;;;;;;0.00;0.00;;;;;;;10.93;78.51;99306.38;7365542;19;20855;-59
2022/11/01 08:43:13;;;;;;;0.00;0.00;;;;;;;10.96;77.97;99293.19;7360974;19;20011;-59
2022/11/01 08:45:39;;;;;;;0.00;0.00;;;;;;;10.99;77.80;99290.41;7360904;19;20660;-59
2022/11/01 08:48:05;;;;;;;0.00;0.00;;;;;;;11.01;78.20;99301.66;7363230;19;20722;-59
2022/11/01 08:50:32;;;;;;;0.00;0.00;;;;;;;11.04;77.97;99298.88;7365488;19;20025;-59
2022/11/01 08:53:02;;;;;;;0.00;0.00;;;;;;;10.97;77.99;99292.25;7364522;19;20002;-58
2022/11/01 08:55:27;;;;;;;0.10;0.10;;;;;;;11.09;78.04;99309.97;7359131;19;20014;-58
2022/11/01 08:57:52;;;;;;;0.00;0.00;;;;;;;11.14;77.92;99321.03;7364810;19;20010;-59
2022/11/01 09:00:18;;;;;;;0.00;0.00;;;;;;;11.18;77.58;99322.59;7364238;19;20018;-59
2022/11/01 09:02:44;;;;;;;0.00;0.00;;;;;;;11.21;77.82;99337.31;7362398;19;20027;-58
2022/11/01 09:05:10;;;;;;;0.08;0.08;;;;;;;11.22;77.59;99332.91;7364272;19;20093;-59
2022/11/01 09:07:36;;;;;;;0.00;0.00;;;;;;;11.05;77.72;99312.78;7362891;19;20362;-58
2022/11/01 09:10:03;;;;;;;0.00;0.00;;;;;;;11.30;77.33;99346.44;7363752;19;20020;-59
2022/11/01 09:12:28;;;;;;;0.00;0.00;;;;;;;11.31;77.24;99342.94;7364139;19;20003;-59
2022/11/01 09:14:53;;;;;;;0.00;0.00;;;;;;;11.18;77.23;99319.16;7361533;19;20482;-59
2022/11/01 09:17:19;;;;;;;0.00;0.00;;;;;;;11.35;77.21;99349.69;7363323;19;20003;-58
2022/11/01 09:19:44;;;;;;;0.00;0.00;;;;;;;11.37;77.13;99356.56;7354922;19;20017;-58
2022/11/01 09:24:45;;;;;;;0.00;0.00;;;;;;;11.42;77.09;99358.97;7327238;19;20044;-63
2022/11/01 09:27:11;;;;;;;0.00;0.00;;;;;;;11.35;76.95;99344.47;7366336;19;20010;-62
2022/11/01 09:29:37;;;;;;;0.00;0.00;;;;;;;11.47;76.92;99349.13;7366098;19;20869;-63
2022/11/01 09:32:02;;;;;;;0.10;0.10;;;;;;;11.49;76.79;99362.97;7368636;19;20006;-63
2022/11/01 09:34:28;;;;;;;0.00;0.00;;;;;;;11.51;76.83;99361.13;7366220;19;20010;-62
2022/11/01 09:36:53;;;;;;;0.00;0.00;;;;;;;11.52;77.13;99364.59;7364383;19;20461;-62
2022/11/01 09:39:20;;;;;;;0.00;0.00;;;;;;;11.54;76.57;99366.19;7362730;19;20018;-62
2022/11/01 09:41:55;;;;;;;0.00;0.00;;;;;;;11.60;76.87;99371.13;7367913;19;20082;-62
2022/11/01 09:44:35;;;;;;;0.00;0.00;;;;;;;11.60;76.60;99360.66;7365518;19;20034;-62
2022/11/01 09:47:06;;;;;;;0.10;0.10;;;;;;;11.61;76.25;99367.63;7363330;19;20047;-61
2022/11/01 09:49:36;;;;;;;0.00;0.00;;;;;;;11.55;76.87;99349.59;7362908;19;20484;-62
2022/11/01 09:52:03;;;;;;;0.00;0.00;;;;;;;11.65;76.68;99358.69;7366432;19;20021;-61
2022/11/01 09:54:29;;;;;;;0.10;0.10;;;;;;;11.67;76.46;99361.25;7360255;19;20022;-62
2022/11/01 09:57:00;;;;;;;0.00;0.00;;;;;;;11.74;76.48;99364.41;7363567;19;20013;-61
2022/11/01 09:59:36;;;;;;;0.00;0.00;;;;;;;11.66;76.72;99339.47;7362951;19;20017;-62
2022/11/01 10:02:32;;;;;;;0.00;0.00;;;;;;;11.80;76.55;99348.41;7366176;19;20006;-62
2022/11/01 10:05:32;;;;;;;0.00;0.00;;;;;;;11.85;76.94;99359.50;7263595;19;2004604;-62
2022/11/01 10:08:18;;;;;;;0.00;0.00;;;;;;;11.88;76.61;99357.59;7260195;19;2004567;-62
2022/11/01 10:10:50;;;;;;;0.10;0.10;;;;;;;11.89;76.45;99363.69;7364829;19;20354;-61
2022/11/01 10:14:00;;;;;;;0.00;0.00;;;;;;;11.97;76.51;99368.53;7355915;19;20015;-61
2022/11/01 10:16:42;;;;;;;0.10;0.10;;;;;;;11.95;76.22;99355.53;7258447;19;2004374;-61
2022/11/01 10:19:14;;;;;;;0.00;0.00;;;;;;;12.04;76.05;99376.00;7362404;19;20014;-62
2022/11/01 10:21:46;;;;;;;0.00;0.00;;;;;;;12.06;76.09;99368.91;7364220;19;20101;-61
2022/11/01 10:24:21;;;;;;;0.00;0.00;;;;;;;12.09;75.96;99367.91;7361762;19;20015;-62
2022/11/01 10:26:52;;;;;;;0.00;0.00;;;;;;;12.11;76.25;99366.06;7368099;19;20014;-61
2022/11/01 10:29:32;;;;;;;0.00;0.00;;;;;;;12.17;76.19;99371.84;7365947;19;20762;-61
2022/11/01 10:31:58;;;;;;;0.00;0.00;;;;;;;12.17;75.86;99361.38;7365379;19;20022;-61
2022/11/01 10:34:33;;;;;;;0.00;0.00;;;;;;;12.25;76.14;99368.00;7364303;19;20006;-61
2022/11/01 10:37:13;;;;;;;0.08;0.08;;;;;;;12.29;76.02;99364.28;7365285;19;20085;-62
2022/11/01 10:40:02;;;;;;;0.00;0.00;;;;;;;12.35;75.85;99369.22;7365795;19;20543;-62
2022/11/01 10:42:28;;;;;;;0.00;0.00;;;;;;;12.33;75.72;99371.91;7364482;19;20536;-61
2022/11/01 10:44:59;;;;;;;0.00;0.00;;;;;;;12.37;75.06;99368.22;7363860;19;20129;-61
2022/11/01 10:47:25;;;;;;;0.00;0.00;;;;;;;12.36;75.26;99371.75;7359715;19;21332;-61
2022/11/01 10:49:56;;;;;;;0.00;0.00;;;;;;;12.42;75.53;99378.47;7343174;19;20010;-62
2022/11/01 10:52:31;;;;;;;0.00;0.00;;;;;;;12.45;75.23;99383.53;7366849;19;20007;-61
2022/11/01 10:54:58;;;;;;;0.10;0.10;;;;;;;12.31;75.09;99362.44;7365523;19;20042;-61
2022/11/01 10:57:23;;;;;;;0.00;0.00;;;;;;;12.47;75.16;99392.16;7364016;19;20878;-61
2022/11/01 10:59:49;;;;;;;0.03;0.03;;;;;;;12.48;75.01;99382.53;7368302;19;20006;-61
2022/11/01 11:02:24;;;;;;;0.00;0.00;;;;;;;12.56;75.59;99396.06;7365114;19;20421;-61
2022/11/01 11:04:51;;;;;;;0.03;0.03;;;;;;;12.56;75.07;99383.81;7367306;19;20028;-61
2022/11/01 11:07:17;;;;;;;0.00;0.00;;;;;;;12.60;75.10;99390.59;7364589;19;20034;-62
2022/11/01 11:09:43;;;;;;;0.00;0.00;;;;;;;12.65;75.37;99396.44;7367808;19;20022;-59
2022/11/01 11:12:16;;;;;;;0.03;0.03;;;;;;;12.65;74.91;99387.72;7365374;19;20625;-61
2022/11/01 11:14:44;;;;;;;0.00;0.00;;;;;;;12.71;74.51;99387.41;7363257;19;20018;-61
2022/11/01 11:17:19;;;;;;;0.10;0.10;;;;;;;12.76;74.92;99384.53;7363944;19;20038;-61
2022/11/01 11:19:46;;;;;;;0.00;0.00;;;;;;;12.78;74.87;99394.03;7362832;19;20034;-61
2022/11/01 11:22:13;;;;;;;0.00;0.00;;;;;;;12.79;74.39;99389.63;7363696;19;20015;-61
2022/11/01 11:24:42;;;;;;;0.00;0.00;;;;;;;12.82;74.38;99389.47;7363572;19;20078;-61
2022/11/01 11:27:22;;;;;;;0.10;0.10;;;;;;;12.87;74.68;99388.28;7361146;19;20490;-61
2022/11/01 11:29:52;;;;;;;0.00;0.00;;;;;;;12.87;74.01;99384.81;7366056;19;20008;-61
2022/11/01 11:32:26;;;;;;;0.00;0.00;;;;;;;12.92;74.33;99385.41;7364711;19;20563;-60
2022/11/01 11:34:57;;;;;;;0.00;0.00;;;;;;;12.95;74.76;99398.38;7367076;19;20013;-61
2022/11/01 11:37:25;;;;;;;0.00;0.00;;;;;;;12.97;74.07;99397.34;7367135;19;20758;-61
2022/11/01 11:40:05;;;;;;;0.00;0.00;;;;;;;13.03;74.38;99388.34;7364407;19;20038;-61
2022/11/01 11:42:32;;;;;;;0.00;0.00;;;;;;;13.06;73.81;99388.16;7365031;19;20006;-61
2022/11/01 11:45:12;;;;;;;0.00;0.00;;;;;;;13.16;74.01;99384.09;7366201;19;20026;-59
2022/11/01 11:47:38;;;;;;;0.05;0.05;;;;;;;13.16;73.71;99378.84;7363687;19;20006;-61
2022/11/01 11:50:18;;;;;;;0.10;0.10;;;;;;;13.29;74.28;99373.00;7364672;19;20698;-61
2022/11/01 11:52:47;;;;;;;0.00;0.00;;;;;;;13.32;73.67;99372.81;7363864;19;20473;-61
2022/11/01 11:55:34;;;;;;;0.00;0.00;;;;;;;13.43;73.92;99378.31;7366738;19;20014;-61